sensor_id;sensor_type;location;lat;lon;timestamp;pressure;altitude;pressure_sealevel;temperature;humidity
68669;BME280;55652;49.454;7.798;2022-11-20T10:29:32;98121.22;;;24.64;49.21
68669;BME280;55652;49.454;7.798;2022-11-20T10:32:16;98121.44;;;24.72;48.88
68669;BME280;55652;49.454;7.798;2022-11-20T10:37:22;98112.78;;;24.89;46.90
68669;BME280;55652;49.454;7.798;2022-11-20T10:42:41;98110.41;;;25.12;45.91
68669;BME280;55652;49.454;7.798;2022-11-20T10:50:36;98098.94;;;25.39;45.09
68669;BME280;55652;49.454;7.798;2022-11-20T10:55:46;98080.53;;;25.44;45.41
68669;BME280;55652;49.454;7.798;2022-11-20T11:00:37;98087.50;;;25.56;46.28
68669;BME280;55652;49.454;7.798;2022-11-20T11:03:26;98085.91;;;25.74;46.20
68669;BME280;55652;49.454;7.798;2022-11-20T11:06:07;98084.88;;;25.94;45.22
68669;BME280;55652;49.454;7.798;2022-11-20T11:08:40;98081.69;;;26.05;45.13
68669;BME280;55652;49.454;7.798;2022-11-20T11:11:20;98090.56;;;26.16;44.60
68669;BME280;55652;49.454;7.798;2022-11-20T11:13:46;98076.19;;;26.24;44.58
68669;BME280;55652;49.454;7.798;2022-11-20T11:16:26;98082.63;;;26.33;45.42
68669;BME280;55652;49.454;7.798;2022-11-20T11:19:06;98078.91;;;26.43;45.32
68669;BME280;55652;49.454;7.798;2022-11-20T11:21:32;98066.78;;;26.49;45.39
68669;BME280;55652;49.454;7.798;2022-11-20T11:24:03;98070.88;;;26.52;44.90
68669;BME280;55652;49.454;7.798;2022-11-20T11:26:29;98073.53;;;26.57;44.71
68669;BME280;55652;49.454;7.798;2022-11-20T11:29:00;98070.78;;;26.57;44.59
68669;BME280;55652;49.454;7.798;2022-11-20T11:31:28;98072.94;;;26.60;44.30
68669;BME280;55652;49.454;7.798;2022-11-20T11:34:14;98065.88;;;26.73;43.88
68669;BME280;55652;49.454;7.798;2022-11-20T11:36:42;98054.78;;;26.78;43.81
68669;BME280;55652;49.454;7.798;2022-11-20T11:39:18;98049.22;;;26.83;43.37
68669;BME280;55652;49.454;7.798;2022-11-20T11:41:46;98047.50;;;26.87;43.86
68669;BME280;55652;49.454;7.798;2022-11-20T11:44:43;98054.22;;;26.95;43.86
68669;BME280;55652;49.454;7.798;2022-11-20T11:47:44;98053.28;;;26.86;44.15
68669;BME280;55652;49.454;7.798;2022-11-20T12:03:42;98041.53;;;27.13;43.35
68669;BME280;55652;49.454;7.798;2022-11-20T12:06:14;98045.50;;;27.20;43.58
68669;BME280;55652;49.454;7.798;2022-11-20T12:08:57;98038.03;;;27.26;43.67
68669;BME280;55652;49.454;7.798;2022-11-20T12:16:41;98032.00;;;27.52;45.09
68669;BME280;55652;49.454;7.798;2022-11-20T12:19:12;98033.03;;;27.56;45.34
68669;BME280;55652;49.454;7.798;2022-11-20T12:29:53;98030.88;;;27.53;44.78
68669;BME280;55652;49.454;7.798;2022-11-20T12:35:17;98026.69;;;27.55;43.44
68669;BME280;55652;49.454;7.798;2022-11-20T12:38:15;98012.97;;;27.55;42.88
68669;BME280;55652;49.454;7.798;2022-11-20T12:41:10;98017.34;;;27.56;42.06
68669;BME280;55652;49.454;7.798;2022-11-20T12:44:04;98010.72;;;27.57;42.30
68669;BME280;55652;49.454;7.798;2022-11-20T12:54:57;98012.47;;;27.53;43.86
68669;BME280;55652;49.454;7.798;2022-11-20T13:00:25;98012.63;;;27.84;42.94
68669;BME280;55652;49.454;7.798;2022-11-20T13:08:29;98004.50;;;27.65;42.89
68669;BME280;55652;49.454;7.798;2022-11-20T13:16:12;98008.97;;;27.89;41.90
68669;BME280;55652;49.454;7.798;2022-11-20T13:18:42;97988.44;;;27.73;42.89
68669;BME280;55652;49.454;7.798;2022-11-20T13:21:15;97986.72;;;27.77;44.32
68669;BME280;55652;49.454;7.798;2022-11-20T13:25:34;97974.59;;;27.78;45.00
68669;BME280;55652;49.454;7.798;2022-11-20T13:28:05;97979.25;;;27.91;43.95
68669;BME280;55652;49.454;7.798;2022-11-20T13:30:52;97977.94;;;27.88;44.71
68669;BME280;55652;49.454;7.798;2022-11-20T13:38:21;97960.78;;;27.83;47.07
68669;BME280;55652;49.454;7.798;2022-11-20T13:41:08;97962.91;;;27.86;45.35
68669;BME280;55652;49.454;7.798;2022-11-20T13:43:52;97964.53;;;27.73;44.24
68669;BME280;55652;49.454;7.798;2022-11-20T13:46:17;97962.41;;;27.70;43.38
68669;BME280;55652;49.454;7.798;2022-11-20T13:48:50;97954.69;;;27.72;42.85
68669;BME280;55652;49.454;7.798;2022-11-20T13:51:40;97943.38;;;27.74;41.46
68669;BME280;55652;49.454;7.798;2022-11-20T16:39:40;97790.03;;;24.18;34.85
68669;BME280;55652;49.454;7.798;2022-11-20T16:42:06;97790.03;;;24.18;35.53
68669;BME280;55652;49.454;7.798;2022-11-20T16:44:31;97791.84;;;24.28;37.01
68669;BME280;55652;49.454;7.798;2022-11-20T16:46:56;97794.34;;;24.49;41.01
68669;BME280;55652;49.454;7.798;2022-11-20T16:49:22;97792.22;;;24.65;42.42
68669;BME280;55652;49.454;7.798;2022-11-20T16:51:47;97782.28;;;24.74;43.15
68669;BME280;55652;49.454;7.798;2022-11-20T16:54:13;97782.94;;;24.85;42.80
68669;BME280;55652;49.454;7.798;2022-11-20T16:56:38;97784.16;;;24.97;43.75
68669;BME280;55652;49.454;7.798;2022-11-20T16:59:04;97786.22;;;25.05;43.30
68669;BME280;55652;49.454;7.798;2022-11-20T17:01:30;97775.69;;;25.13;43.33
68669;BME280;55652;49.454;7.798;2022-11-20T17:04:01;97778.75;;;25.30;43.70
68669;BME280;55652;49.454;7.798;2022-11-20T17:06:28;97773.72;;;25.37;43.09
68669;BME280;55652;49.454;7.798;2022-11-20T17:08:56;97774.72;;;25.41;43.00
68669;BME280;55652;49.454;7.798;2022-11-20T17:11:22;97777.38;;;25.46;42.57
68669;BME280;55652;49.454;7.798;2022-11-20T17:13:48;97774.56;;;25.52;42.46
68669;BME280;55652;49.454;7.798;2022-11-20T17:16:17;97770.09;;;25.56;42.23
68669;BME280;55652;49.454;7.798;2022-11-20T17:18:43;97771.31;;;25.63;42.33
68669;BME280;55652;49.454;7.798;2022-11-20T17:21:09;97769.22;;;25.74;41.75
68669;BME280;55652;49.454;7.798;2022-11-20T17:23:38;97769.66;;;25.81;41.58
68669;BME280;55652;49.454;7.798;2022-11-20T17:28:31;97768.38;;;25.92;42.27
68669;BME280;55652;49.454;7.798;2022-11-20T17:31:07;97765.03;;;25.96;42.23
68669;BME280;55652;49.454;7.798;2022-11-20T17:33:35;97772.66;;;25.99;42.36
68669;BME280;55652;49.454;7.798;2022-11-20T17:36:03;97763.22;;;26.05;42.26
68669;BME280;55652;49.454;7.798;2022-11-20T17:38:28;97769.69;;;26.09;42.33
68669;BME280;55652;49.454;7.798;2022-11-20T17:43:58;97768.19;;;26.17;42.22
68669;BME280;55652;49.454;7.798;2022-11-20T17:46:27;97765.56;;;26.25;42.35
68669;BME280;55652;49.454;7.798;2022-11-20T17:48:54;97760.09;;;26.25;42.13
68669;BME280;55652;49.454;7.798;2022-11-20T17:51:23;97772.22;;;26.19;42.23
68669;BME280;55652;49.454;7.798;2022-11-20T17:53:51;97764.53;;;26.21;42.16
68669;BME280;55652;49.454;7.798;2022-11-20T17:56:17;97767.78;;;26.23;42.25
68669;BME280;55652;49.454;7.798;2022-11-20T17:59:10;97751.53;;;26.27;42.19
68669;BME280;55652;49.454;7.798;2022-11-20T18:01:36;97762.00;;;26.39;41.89
68669;BME280;55652;49.454;7.798;2022-11-20T18:04:02;97748.50;;;26.56;42.63
68669;BME280;55652;49.454;7.798;2022-11-20T18:06:29;97746.66;;;26.51;42.85
68669;BME280;55652;49.454;7.798;2022-11-20T18:08:57;97751.31;;;26.51;43.14
68669;BME280;55652;49.454;7.798;2022-11-20T18:11:28;97757.34;;;26.53;43.57
68669;BME280;55652;49.454;7.798;2022-11-20T18:13:56;97764.75;;;26.52;44.32
68669;BME280;55652;49.454;7.798;2022-11-20T18:16:46;97741.59;;;26.58;43.92
68669;BME280;55652;49.454;7.798;2022-11-20T18:19:16;97741.94;;;26.79;44.04
68669;BME280;55652;49.454;7.798;2022-11-20T18:21:41;97739.72;;;26.82;43.67
68669;BME280;55652;49.454;7.798;2022-11-20T18:24:08;97735.03;;;26.82;43.69
68669;BME280;55652;49.454;7.798;2022-11-20T18:26:34;97752.25;;;26.96;43.14
68669;BME280;55652;49.454;7.798;2022-11-20T18:28:59;97739.22;;;27.02;43.02
68669;BME280;55652;49.454;7.798;2022-11-20T18:31:25;97728.97;;;27.08;42.59
68669;BME280;55652;49.454;7.798;2022-11-20T18:33:51;97739.59;;;27.09;42.60
68669;BME280;55652;49.454;7.798;2022-11-20T18:36:21;97748.84;;;27.13;42.27
68669;BME280;55652;49.454;7.798;2022-11-20T18:38:49;97740.63;;;27.13;42.26
68669;BME280;55652;49.454;7.798;2022-11-20T18:41:17;97736.75;;;27.14;42.61
68669;BME280;55652;49.454;7.798;2022-11-20T18:44:04;97733.09;;;27.19;42.42
68669;BME280;55652;49.454;7.798;2022-11-20T18:46:49;97727.91;;;27.17;42.55
68669;BME280;55652;49.454;7.798;2022-11-20T18:49:14;97713.56;;;27.20;42.75
68669;BME280;55652;49.454;7.798;2022-11-20T18:51:40;97716.19;;;27.26;43.03
68669;BME280;55652;49.454;7.798;2022-11-20T18:54:08;97718.47;;;27.23;43.27
68669;BME280;55652;49.454;7.798;2022-11-20T18:56:34;97708.97;;;27.30;43.31
68669;BME280;55652;49.454;7.798;2022-11-20T18:59:01;97710.28;;;27.32;43.15
68669;BME280;55652;49.454;7.798;2022-11-20T19:01:26;97696.22;;;27.34;43.02
68669;BME280;55652;49.454;7.798;2022-11-20T19:03:52;97700.91;;;27.33;43.00
68669;BME280;55652;49.454;7.798;2022-11-20T19:06:18;97698.97;;;27.34;42.98
68669;BME280;55652;49.454;7.798;2022-11-20T19:08:43;97693.47;;;27.34;43.05
68669;BME280;55652;49.454;7.798;2022-11-20T19:11:11;97689.75;;;27.30;42.85
68669;BME280;55652;49.454;7.798;2022-11-20T19:13:37;97680.53;;;27.26;42.82
68669;BME280;55652;49.454;7.798;2022-11-20T19:16:05;97687.94;;;27.25;42.77
68669;BME280;55652;49.454;7.798;2022-11-20T19:18:31;97684.69;;;27.23;42.72
68669;BME280;55652;49.454;7.798;2022-11-20T19:20:57;97687.94;;;27.25;42.95
68669;BME280;55652;49.454;7.798;2022-11-20T19:23:22;97683.59;;;27.24;43.18
68669;BME280;55652;49.454;7.798;2022-11-20T19:25:48;97691.81;;;27.24;43.24
68669;BME280;55652;49.454;7.798;2022-11-20T19:28:13;97690.38;;;27.27;43.33
68669;BME280;55652;49.454;7.798;2022-11-20T19:30:40;97687.78;;;27.21;43.47
68669;BME280;55652;49.454;7.798;2022-11-20T19:33:06;97697.31;;;27.24;43.35
68669;BME280;55652;49.454;7.798;2022-11-20T19:35:31;97696.06;;;27.30;43.32
